Time;durP1;ratioP1;P1;durP2;ratioP2;P2;SDS_P1;SDS_P2;PMS_P1;PMS_P2;Temp;Humidity;BMP_temperature;BMP_pressure;BME280_temperature;BME280_humidity;BME280_pressure;Samples;Min_cycle;Max_cycle;Signal;HPM_P1;HPM_P2
2024/01/11 00:02:17;;;;;;;41.40;16.05;;;;;;;;;;5069969;28;20086;-88
2024/01/11 00:04:43;;;;;;;40.50;14.13;;;;;;;;;;5070043;28;20393;-88
2024/01/11 00:07:09;;;;;;;47.33;15.10;;;;;;;;;;5075518;28;20016;-87
2024/01/11 00:09:42;;;;;;;30.42;12.35;;;;;;;;;;5069456;28;20028;-88
2024/01/11 00:12:08;;;;;;;28.08;10.85;;;;;;;;;;5075655;28;20044;-88
2024/01/11 00:14:34;;;;;;;29.13;13.90;;;;;;;;;;5079651;28;20021;-88
2024/01/11 00:17:00;;;;;;;26.63;11.60;;;;;;;;;;5069382;28;20033;-88
2024/01/11 00:19:25;;;;;;;30.25;11.57;;;;;;;;;;5063375;28;20135;-88
2024/01/11 00:21:51;;;;;;;34.63;14.60;;;;;;;;;;5069726;28;20037;-87
2024/01/11 00:24:16;;;;;;;13.80;5.20;;;;;;;;;;5073888;28;20028;-89
2024/01/11 00:26:41;;;;;;;13.95;4.57;;;;;;;;;;5081531;28;20027;-87
2024/01/11 00:29:07;;;;;;;16.65;8.50;;;;;;;;;;5081632;28;20069;-87
2024/01/11 00:31:33;;;;;;;39.10;14.13;;;;;;;;;;5078367;28;20082;-88
2024/01/11 00:33:58;;;;;;;32.17;12.35;;;;;;;;;;5069784;28;20024;-88
2024/01/11 00:36:24;;;;;;;8.30;4.72;;;;;;;;;;5072470;28;20062;-87
2024/01/11 00:38:49;;;;;;;35.58;15.60;;;;;;;;;;5073299;28;20115;-88
2024/01/11 00:41:14;;;;;;;39.20;15.95;;;;;;;;;;5075603;28;20015;-87
2024/01/11 00:43:40;;;;;;;45.25;17.30;;;;;;;;;;5061203;28;20382;-88
2024/01/11 00:46:05;;;;;;;47.28;18.05;;;;;;;;;;5070320;28;20028;-88
2024/01/11 00:48:31;;;;;;;35.00;12.68;;;;;;;;;;5063808;28;20028;-88
2024/01/11 00:50:56;;;;;;;32.83;14.23;;;;;;;;;;5073409;28;20567;-87
2024/01/11 00:53:21;;;;;;;33.35;13.88;;;;;;;;;;5071717;28;20075;-88
2024/01/11 00:55:47;;;;;;;33.47;14.85;;;;;;;;;;5070586;28;20021;-88
2024/01/11 00:58:12;;;;;;;18.40;6.82;;;;;;;;;;5072784;28;20024;-87
2024/01/11 01:00:37;;;;;;;7.38;3.67;;;;;;;;;;5061518;28;20485;-88
2024/01/11 01:03:03;;;;;;;30.55;14.32;;;;;;;;;;5066362;28;20028;-87
2024/01/11 01:05:29;;;;;;;11.40;5.28;;;;;;;;;;5069620;28;20024;-87
2024/01/11 01:07:54;;;;;;;36.13;13.93;;;;;;;;;;5070100;28;20024;-87
2024/01/11 01:10:19;;;;;;;28.60;12.85;;;;;;;;;;5069672;28;20701;-87
2024/01/11 01:12:45;;;;;;;32.10;13.73;;;;;;;;;;5068016;28;20025;-88
2024/01/11 01:15:10;;;;;;;36.45;15.35;;;;;;;;;;5068776;28;20051;-87
2024/01/11 01:17:35;;;;;;;11.70;4.03;;;;;;;;;;5071137;28;20093;-88
2024/01/11 01:20:01;;;;;;;33.00;13.57;;;;;;;;;;5073898;28;20159;-87
2024/01/11 01:22:26;;;;;;;42.42;14.90;;;;;;;;;;5072626;28;20024;-87
2024/01/11 01:24:51;;;;;;;41.95;13.50;;;;;;;;;;5078443;28;20051;-88
2024/01/11 01:27:17;;;;;;;41.13;13.60;;;;;;;;;;5074418;28;20028;-87
2024/01/11 01:29:42;;;;;;;38.90;15.35;;;;;;;;;;5071735;28;20036;-87
2024/01/11 01:32:08;;;;;;;33.05;14.18;;;;;;;;;;5075906;28;20037;-87
2024/01/11 01:34:33;;;;;;;37.20;15.32;;;;;;;;;;5071564;28;20056;-88
2024/01/11 01:36:59;;;;;;;20.00;11.10;;;;;;;;;;5074138;28;20395;-88
2024/01/11 01:39:24;;;;;;;34.17;14.40;;;;;;;;;;5087574;28;20024;-88
2024/01/11 01:41:49;;;;;;;37.03;14.48;;;;;;;;;;5074679;28;20740;-87
2024/01/11 01:44:15;;;;;;;30.90;15.00;;;;;;;;;;5075723;28;20054;-87
2024/01/11 01:46:40;;;;;;;30.92;12.98;;;;;;;;;;5071782;28;20052;-88
2024/01/11 01:49:06;;;;;;;29.58;14.23;;;;;;;;;;5075222;28;20035;-88
2024/01/11 01:51:32;;;;;;;34.28;14.10;;;;;;;;;;5082380;28;20763;-88
2024/01/11 01:53:59;;;;;;;32.88;14.50;;;;;;;;;;5070679;28;20056;-88
2024/01/11 01:56:25;;;;;;;16.58;8.80;;;;;;;;;;5073535;28;20082;-86
2024/01/11 01:58:53;;;;;;;25.33;10.18;;;;;;;;;;5069906;28;20020;-88
2024/01/11 02:01:19;;;;;;;39.47;16.23;;;;;;;;;;5068756;28;20020;-87
2024/01/11 02:03:46;;;;;;;38.10;14.77;;;;;;;;;;5070207;28;20020;-86
2024/01/11 02:06:11;;;;;;;15.75;7.85;;;;;;;;;;5078810;28;20026;-87
2024/01/11 02:08:38;;;;;;;38.10;13.10;;;;;;;;;;5068598;28;20572;-87
2024/01/11 02:11:03;;;;;;;31.10;12.57;;;;;;;;;;5069282;28;20035;-88
2024/01/11 02:13:28;;;;;;;30.95;12.05;;;;;;;;;;5069214;28;20024;-87
2024/01/11 02:15:54;;;;;;;38.20;15.93;;;;;;;;;;5072049;28;20480;-87
2024/01/11 02:18:19;;;;;;;38.80;15.73;;;;;;;;;;5080669;28;20407;-87
2024/01/11 02:20:45;;;;;;;32.15;13.38;;;;;;;;;;5076821;28;20024;-87
2024/01/11 02:23:19;;;;;;;27.75;12.77;;;;;;;;;;5063013;28;20925;-88
2024/01/11 02:25:44;;;;;;;44.03;16.13;;;;;;;;;;5069177;28;20027;-87
2024/01/11 02:28:11;;;;;;;33.33;14.95;;;;;;;;;;5069824;28;20032;-87
2024/01/11 02:30:36;;;;;;;34.53;14.15;;;;;;;;;;5075870;28;20039;-88
2024/01/11 02:33:03;;;;;;;42.95;16.10;;;;;;;;;;5076419;28;20027;-87
2024/01/11 02:35:28;;;;;;;45.25;17.42;;;;;;;;;;5079825;28;20048;-88
2024/01/11 02:37:54;;;;;;;38.63;15.68;;;;;;;;;;5074749;28;20059;-88
2024/01/11 02:40:20;;;;;;;15.63;8.02;;;;;;;;;;5073479;28;20048;-87
2024/01/11 02:42:45;;;;;;;46.17;16.30;;;;;;;;;;5068546;28;20110;-87
2024/01/11 02:45:15;;;;;;;38.55;17.08;;;;;;;;;;5074207;28;20484;-87
2024/01/11 02:47:40;;;;;;;43.67;15.88;;;;;;;;;;5080012;28;20028;-87
2024/01/11 02:50:07;;;;;;;28.60;13.63;;;;;;;;;;5078165;28;20028;-87
2024/01/11 02:52:33;;;;;;;36.63;13.93;;;;;;;;;;5075133;28;20103;-87
2024/01/11 02:54:58;;;;;;;4.63;3.95;;;;;;;;;;5067820;28;20093;-87
2024/01/11 02:57:24;;;;;;;17.13;5.72;;;;;;;;;;5071364;28;20477;-87
2024/01/11 02:59:49;;;;;;;34.83;14.77;;;;;;;;;;5065487;28;20051;-87
2024/01/11 03:02:15;;;;;;;31.73;13.38;;;;;;;;;;5072742;28;20123;-87
2024/01/11 03:04:41;;;;;;;11.88;4.82;;;;;;;;;;5074676;28;20027;-87
2024/01/11 03:07:06;;;;;;;8.90;2.33;;;;;;;;;;5072559;28;20045;-87
2024/01/11 03:09:32;;;;;;;38.22;13.63;;;;;;;;;;5067629;28;20070;-88
2024/01/11 03:11:57;;;;;;;17.58;6.57;;;;;;;;;;5071413;28;20105;-87
2024/01/11 03:14:22;;;;;;;12.32;4.32;;;;;;;;;;5078753;28;20020;-87
2024/01/11 03:16:48;;;;;;;6.70;3.45;;;;;;;;;;5070426;28;20021;-87
2024/01/11 03:19:13;;;;;;;38.58;14.75;;;;;;;;;;5076530;28;20027;-87
2024/01/11 03:21:46;;;;;;;40.38;16.33;;;;;;;;;;5074131;28;20103;-87
2024/01/11 03:24:12;;;;;;;33.65;13.75;;;;;;;;;;5073923;28;20024;-87
2024/01/11 03:26:37;;;;;;;32.15;14.20;;;;;;;;;;5067793;28;20024;-88
2024/01/11 03:29:02;;;;;;;34.75;13.52;;;;;;;;;;5068261;28;20051;-88
2024/01/11 03:31:28;;;;;;;21.05;8.77;;;;;;;;;;5061340;28;20031;-87
2024/01/11 03:33:53;;;;;;;13.90;5.03;;;;;;;;;;5075161;28;20023;-87
2024/01/11 03:36:23;;;;;;;4.85;2.50;;;;;;;;;;5078472;28;21156;-88
2024/01/11 03:38:49;;;;;;;8.97;3.17;;;;;;;;;;5073639;28;20020;-87
2024/01/11 03:41:14;;;;;;;16.02;8.65;;;;;;;;;;5076591;28;20024;-87
2024/01/11 03:43:39;;;;;;;34.20;12.90;;;;;;;;;;5071459;28;20074;-87
2024/01/11 03:46:05;;;;;;;33.42;15.32;;;;;;;;;;5066652;28;20024;-87
2024/01/11 03:48:31;;;;;;;9.90;3.83;;;;;;;;;;5070232;28;20561;-87
2024/01/11 03:50:57;;;;;;;28.70;10.85;;;;;;;;;;5072022;28;20060;-87
2024/01/11 03:53:22;;;;;;;19.92;8.18;;;;;;;;;;5076851;28;20173;-88
2024/01/11 03:55:47;;;;;;;29.45;10.77;;;;;;;;;;5071326;28;20024;-88
2024/01/11 03:58:14;;;;;;;29.27;10.02;;;;;;;;;;5067181;28;20488;-88
2024/01/11 04:00:39;;;;;;;32.75;12.98;;;;;;;;;;5077150;28;20021;-87
2024/01/11 04:03:06;;;;;;;28.10;13.07;;;;;;;;;;5070715;28;20492;-88
2024/01/11 04:05:31;;;;;;;28.08;11.48;;;;;;;;;;5077734;28;20111;-87
2024/01/11 04:07:57;;;;;;;22.52;10.90;;;;;;;;;;5066143;28;20163;-88
2024/01/11 04:10:22;;;;;;;18.05;6.53;;;;;;;;;;5068385;28;20032;-88
2024/01/11 04:12:48;;;;;;;8.45;4.22;;;;;;;;;;5062383;28;20051;-86
2024/01/11 04:15:13;;;;;;;34.67;14.15;;;;;;;;;;5064905;28;20060;-88
2024/01/11 04:17:39;;;;;;;28.45;11.20;;;;;;;;;;5072308;28;20039;-88
2024/01/11 04:20:06;;;;;;;27.85;12.00;;;;;;;;;;5072788;28;20024;-88
2024/01/11 04:22:31;;;;;;;30.70;11.93;;;;;;;;;;5067714;28;20025;-88
2024/01/11 04:24:57;;;;;;;38.42;14.23;;;;;;;;;;5077826;28;20307;-88
2024/01/11 04:27:22;;;;;;;37.85;15.85;;;;;;;;;;5075267;28;20505;-88
2024/01/11 04:29:47;;;;;;;12.70;5.32;;;;;;;;;;5076564;28;20077;-88
2024/01/11 04:32:13;;;;;;;5.90;2.63;;;;;;;;;;5070518;28;20020;-87
2024/01/11 04:34:38;;;;;;;32.88;13.57;;;;;;;;;;5065728;28;20389;-87
2024/01/11 04:37:04;;;;;;;31.05;12.95;;;;;;;;;;5070913;28;20103;-87
2024/01/11 04:39:29;;;;;;;35.30;13.05;;;;;;;;;;5073368;28;20492;-87
2024/01/11 04:41:54;;;;;;;28.58;11.80;;;;;;;;;;5073699;28;20116;-88
2024/01/11 04:44:20;;;;;;;39.88;15.20;;;;;;;;;;5071770;28;20063;-87
2024/01/11 04:46:45;;;;;;;27.08;12.43;;;;;;;;;;5079441;28;20472;-88
2024/01/11 04:49:10;;;;;;;34.33;12.25;;;;;;;;;;5073226;28;20192;-87
2024/01/11 04:51:36;;;;;;;27.17;12.90;;;;;;;;;;5073659;28;20586;-87
2024/01/11 04:54:01;;;;;;;2.65;2.00;;;;;;;;;;5064946;28;20024;-87
2024/01/11 04:56:26;;;;;;;20.27;9.45;;;;;;;;;;5077095;28;20039;-88
2024/01/11 04:58:52;;;;;;;37.50;13.20;;;;;;;;;;5066858;28;20029;-88
2024/01/11 05:01:18;;;;;;;18.38;7.88;;;;;;;;;;5079892;28;20613;-87
2024/01/11 05:03:48;;;;;;;18.90;7.05;;;;;;;;;;5078136;28;20024;-88
2024/01/11 05:06:17;;;;;;;5.45;3.65;;;;;;;;;;5070637;28;20016;-87
2024/01/11 05:08:44;;;;;;;21.42;9.45;;;;;;;;;;5069032;28;20017;-88
2024/01/11 05:11:16;;;;;;;4.50;2.40;;;;;;;;;;5078594;28;20396;-87
2024/01/11 05:13:41;;;;;;;7.47;3.47;;;;;;;;;;5070046;28;20016;-87
2024/01/11 05:16:06;;;;;;;3.22;2.58;;;;;;;;;;5075881;28;20035;-87
2024/01/11 05:18:32;;;;;;;13.20;5.60;;;;;;;;;;5069983;28;20138;-87
2024/01/11 05:20:57;;;;;;;8.18;2.42;;;;;;;;;;5083135;28;20119;-88
2024/01/11 05:23:23;;;;;;;10.20;4.50;;;;;;;;;;5076287;28;20020;-87
2024/01/11 05:25:48;;;;;;;9.65;3.45;;;;;;;;;;5080863;28;20024;-88
2024/01/11 05:28:13;;;;;;;16.50;6.70;;;;;;;;;;5067944;28;20028;-87
2024/01/11 05:30:39;;;;;;;7.00;3.25;;;;;;;;;;5066586;28;20036;-88
2024/01/11 05:33:04;;;;;;;19.02;8.80;;;;;;;;;;5077800;28;20036;-87
2024/01/11 05:35:30;;;;;;;20.90;8.25;;;;;;;;;;5080480;28;20081;-87
2024/01/11 05:37:55;;;;;;;20.27;7.75;;;;;;;;;;5076117;28;20025;-87
2024/01/11 05:40:21;;;;;;;20.27;9.48;;;;;;;;;;5067193;28;20411;-87
2024/01/11 05:42:46;;;;;;;10.27;4.43;;;;;;;;;;5083806;28;20024;-88
2024/01/11 05:45:16;;;;;;;5.30;3.05;;;;;;;;;;5074380;28;20594;-87
2024/01/11 05:47:43;;;;;;;10.15;3.63;;;;;;;;;;5070527;28;20036;-87
2024/01/11 05:50:08;;;;;;;28.35;10.20;;;;;;;;;;5074365;28;20516;-88
2024/01/11 05:52:34;;;;;;;29.30;11.57;;;;;;;;;;5078029;28;20037;-87
2024/01/11 05:54:59;;;;;;;12.60;5.13;;;;;;;;;;5075159;28;20037;-88
2024/01/11 05:57:24;;;;;;;17.52;8.75;;;;;;;;;;5073376;28;20623;-87
2024/01/11 05:59:50;;;;;;;42.85;16.05;;;;;;;;;;5077963;28;20400;-87
2024/01/11 06:02:15;;;;;;;27.77;13.68;;;;;;;;;;5076184;28;20031;-87
2024/01/11 06:04:43;;;;;;;39.00;16.45;;;;;;;;;;5063339;28;20024;-87
2024/01/11 06:07:09;;;;;;;34.92;15.32;;;;;;;;;;5071089;28;20450;-86
2024/01/11 06:09:34;;;;;;;32.60;13.43;;;;;;;;;;5063610;28;20108;-87
2024/01/11 06:12:01;;;;;;;30.95;13.25;;;;;;;;;;5070882;28;20111;-87
2024/01/11 06:14:27;;;;;;;25.70;12.05;;;;;;;;;;5069678;28;20028;-87
2024/01/11 06:16:52;;;;;;;27.55;11.02;;;;;;;;;;5071681;28;20181;-88
2024/01/11 06:19:17;;;;;;;19.08;9.57;;;;;;;;;;5081618;28;20114;-88
2024/01/11 06:21:43;;;;;;;14.75;5.43;;;;;;;;;;5068716;28;20023;-87
2024/01/11 06:24:09;;;;;;;29.20;13.68;;;;;;;;;;5072098;28;20062;-90
2024/01/11 06:26:34;;;;;;;30.40;13.35;;;;;;;;;;5075914;28;20028;-88
2024/01/11 06:28:59;;;;;;;35.00;12.65;;;;;;;;;;5080243;28;20032;-87
2024/01/11 06:31:25;;;;;;;12.65;5.07;;;;;;;;;;5074595;28;20511;-87
2024/01/11 06:33:51;;;;;;;27.73;6.22;;;;;;;;;;5072148;28;20024;-86
2024/01/11 06:36:16;;;;;;;26.42;11.95;;;;;;;;;;5080927;28;20026;-87
2024/01/11 06:38:41;;;;;;;5.40;3.90;;;;;;;;;;5079897;28;20055;-87
2024/01/11 06:41:07;;;;;;;30.05;13.52;;;;;;;;;;5072267;28;20095;-87
2024/01/11 06:43:32;;;;;;;11.75;5.22;;;;;;;;;;5080690;28;20094;-87
2024/01/11 06:46:03;;;;;;;5.55;1.42;;;;;;;;;;5076245;28;20048;-87
2024/01/11 06:48:28;;;;;;;8.45;3.78;;;;;;;;;;5070963;28;20032;-86
2024/01/11 06:50:54;;;;;;;27.02;11.82;;;;;;;;;;5076110;28;20021;-87
2024/01/11 06:53:19;;;;;;;3.53;2.03;;;;;;;;;;5078959;28;20491;-87
2024/01/11 06:55:44;;;;;;;13.23;6.57;;;;;;;;;;5074602;28;20023;-86
2024/01/11 06:58:10;;;;;;;4.43;2.10;;;;;;;;;;5074686;28;20088;-87
2024/01/11 07:00:35;;;;;;;4.13;2.40;;;;;;;;;;5071136;28;20032;-87
2024/01/11 07:03:01;;;;;;;8.63;4.50;;;;;;;;;;5075197;28;20473;-87
2024/01/11 07:05:26;;;;;;;12.18;6.90;;;;;;;;;;5073611;28;20028;-87
2024/01/11 07:07:51;;;;;;;17.48;7.70;;;;;;;;;;5070044;28;20077;-88
2024/01/11 07:10:17;;;;;;;4.90;2.25;;;;;;;;;;5071066;28;20047;-87
2024/01/11 07:12:42;;;;;;;17.90;6.53;;;;;;;;;;5074566;28;20125;-87
2024/01/11 07:15:08;;;;;;;6.72;3.45;;;;;;;;;;5070592;28;20016;-87
2024/01/11 07:17:34;;;;;;;27.58;11.45;;;;;;;;;;5074330;28;20020;-87
2024/01/11 07:19:59;;;;;;;21.02;8.77;;;;;;;;;;5072967;28;20534;-88
2024/01/11 07:22:25;;;;;;;31.40;12.32;;;;;;;;;;5069568;28;20020;-87
2024/01/11 07:24:52;;;;;;;9.35;5.57;;;;;;;;;;5076872;28;20122;-87
2024/01/11 07:27:17;;;;;;;10.35;4.55;;;;;;;;;;5069490;28;20036;-86
2024/01/11 07:29:42;;;;;;;28.33;11.20;;;;;;;;;;5067122;28;20089;-86
2024/01/11 07:32:08;;;;;;;27.48;10.60;;;;;;;;;;5073032;28;20024;-87
2024/01/11 07:34:33;;;;;;;21.60;8.93;;;;;;;;;;5081205;28;20031;-87
2024/01/11 07:36:59;;;;;;;34.80;13.40;;;;;;;;;;5066409;28;20088;-87
2024/01/11 07:39:24;;;;;;;41.00;18.60;;;;;;;;;;5080960;28;20119;-87
2024/01/11 07:41:49;;;;;;;29.85;14.50;;;;;;;;;;5075848;28;20056;-86
2024/01/11 07:44:15;;;;;;;27.83;14.40;;;;;;;;;;5067095;28;20028;-87
2024/01/11 07:46:40;;;;;;;34.35;14.85;;;;;;;;;;5068906;28;21911;-87
2024/01/11 07:49:06;;;;;;;12.00;8.15;;;;;;;;;;5075269;28;20127;-86
2024/01/11 07:51:34;;;;;;;36.75;14.13;;;;;;;;;;5060850;28;20391;-86
2024/01/11 07:53:59;;;;;;;32.05;13.93;;;;;;;;;;5073599;28;20024;-87
2024/01/11 07:56:25;;;;;;;35.22;16.10;;;;;;;;;;5074865;28;20027;-86
2024/01/11 07:58:50;;;;;;;36.95;14.73;;;;;;;;;;5071534;28;20074;-87
2024/01/11 08:01:16;;;;;;;36.70;15.85;;;;;;;;;;5071528;28;20543;-85
2024/01/11 08:03:44;;;;;;;27.48;11.90;;;;;;;;;;5067140;28;20043;-87
2024/01/11 08:06:10;;;;;;;34.50;13.63;;;;;;;;;;5075629;28;20024;-86
2024/01/11 08:08:36;;;;;;;17.02;8.90;;;;;;;;;;5071225;28;20930;-88
2024/01/11 08:11:01;;;;;;;19.48;9.27;;;;;;;;;;5080730;28;20511;-87
2024/01/11 08:13:27;;;;;;;2.72;1.65;;;;;;;;;;5070365;28;20029;-88
2024/01/11 08:15:53;;;;;;;36.30;12.52;;;;;;;;;;5069246;28;20028;-87
2024/01/11 08:18:19;;;;;;;39.83;15.00;;;;;;;;;;5076639;28;20020;-85
2024/01/11 08:20:44;;;;;;;53.70;20.40;;;;;;;;;;5068446;28;20062;-87
2024/01/11 08:23:10;;;;;;;5.80;3.65;;;;;;;;;;5074986;28;20024;-87
2024/01/11 08:25:35;;;;;;;9.20;5.05;;;;;;;;;;5076770;28;20020;-86
2024/01/11 08:28:00;;;;;;;35.95;15.32;;;;;;;;;;5076978;28;20092;-87
2024/01/11 08:30:26;;;;;;;26.20;12.60;;;;;;;;;;5071077;28;20028;-86
2024/01/11 08:32:51;;;;;;;40.13;15.80;;;;;;;;;;5072519;28;20024;-87
2024/01/11 08:35:17;;;;;;;39.42;17.13;;;;;;;;;;5070424;28;20043;-87
2024/01/11 08:37:42;;;;;;;33.63;15.48;;;;;;;;;;5065418;28;20032;-88
2024/01/11 08:40:09;;;;;;;42.60;16.10;;;;;;;;;;5078011;28;20046;-88
2024/01/11 08:42:34;;;;;;;50.28;21.60;;;;;;;;;;5083987;28;20107;-87
2024/01/11 08:45:06;;;;;;;56.00;22.60;;;;;;;;;;5075875;28;20542;-87
2024/01/11 08:47:32;;;;;;;36.38;15.20;;;;;;;;;;5072383;28;20056;-88
2024/01/11 08:49:57;;;;;;;39.50;15.90;;;;;;;;;;5071925;28;20055;-87
2024/01/11 08:52:22;;;;;;;41.10;17.63;;;;;;;;;;5068468;28;20052;-87
2024/01/11 08:54:49;;;;;;;34.35;14.80;;;;;;;;;;5070397;28;20729;-87
2024/01/11 08:57:15;;;;;;;43.72;18.98;;;;;;;;;;5078688;28;20020;-88
2024/01/11 08:59:41;;;;;;;52.15;20.35;;;;;;;;;;5067865;28;20046;-88
2024/01/11 09:02:06;;;;;;;51.92;23.92;;;;;;;;;;5080699;28;20526;-88
2024/01/11 09:04:33;;;;;;;12.15;7.15;;;;;;;;;;5077309;28;20027;-88
2024/01/11 09:06:59;;;;;;;33.20;13.60;;;;;;;;;;5077507;28;20055;-88
2024/01/11 09:09:25;;;;;;;47.75;20.17;;;;;;;;;;5074962;28;20032;-88
2024/01/11 09:11:50;;;;;;;52.65;19.33;;;;;;;;;;5064764;28;20784;-87
2024/01/11 09:14:16;;;;;;;47.88;18.95;;;;;;;;;;5066259;28;20369;-86
2024/01/11 09:16:41;;;;;;;42.50;18.67;;;;;;;;;;5064558;28;20031;-86
2024/01/11 09:19:07;;;;;;;18.27;7.45;;;;;;;;;;5076371;28;20107;-87
2024/01/11 09:21:32;;;;;;;34.03;12.50;;;;;;;;;;5072791;28;20473;-86
2024/01/11 09:23:57;;;;;;;39.47;16.30;;;;;;;;;;5066969;28;20032;-86
2024/01/11 09:26:23;;;;;;;35.15;17.23;;;;;;;;;;5073839;28;20021;-87
2024/01/11 09:28:49;;;;;;;41.03;18.65;;;;;;;;;;5072184;28;20119;-86
2024/01/11 09:31:14;;;;;;;50.03;20.35;;;;;;;;;;5072886;28;20031;-86
2024/01/11 09:33:40;;;;;;;56.95;23.23;;;;;;;;;;5069596;28;20031;-86
2024/01/11 09:36:05;;;;;;;18.15;10.05;;;;;;;;;;5064837;28;20107;-86
2024/01/11 09:38:31;;;;;;;16.95;6.28;;;;;;;;;;5064991;28;20103;-85
2024/01/11 09:41:11;;;;;;;40.85;18.40;;;;;;;;;;5063580;28;20045;-86
2024/01/11 09:43:37;;;;;;;45.10;15.50;;;;;;;;;;5057581;28;20027;-88
2024/01/11 09:46:06;;;;;;;40.78;15.93;;;;;;;;;;5068650;28;20032;-86
2024/01/11 09:48:37;;;;;;;10.43;6.32;;;;;;;;;;5066516;28;20036;-86
2024/01/11 09:51:05;;;;;;;34.08;13.07;;;;;;;;;;5072521;28;20025;-86
2024/01/11 09:53:32;;;;;;;63.15;23.77;;;;;;;;;;5067404;28;20039;-86
2024/01/11 09:55:59;;;;;;;32.20;13.18;;;;;;;;;;5072131;28;20032;-86
2024/01/11 09:58:25;;;;;;;38.88;16.63;;;;;;;;;;5072218;28;20032;-86
2024/01/11 10:00:55;;;;;;;44.08;18.85;;;;;;;;;;5068779;28;20027;-86
2024/01/11 10:03:23;;;;;;;58.07;23.87;;;;;;;;;;5067771;28;20031;-87
2024/01/11 10:05:50;;;;;;;57.80;24.05;;;;;;;;;;5072737;28;20035;-88
2024/01/11 10:08:18;;;;;;;58.63;24.65;;;;;;;;;;5068628;28;20069;-87
2024/01/11 10:10:44;;;;;;;60.22;22.38;;;;;;;;;;5063399;28;20070;-86
2024/01/11 10:13:10;;;;;;;40.13;17.10;;;;;;;;;;5071922;28;20028;-87
2024/01/11 10:15:36;;;;;;;18.40;8.38;;;;;;;;;;5067777;28;21425;-88
2024/01/11 10:18:01;;;;;;;42.47;19.98;;;;;;;;;;5073737;28;20049;-89
2024/01/11 10:20:29;;;;;;;41.08;16.95;;;;;;;;;;5074782;28;20012;-88
2024/01/11 10:22:56;;;;;;;44.65;19.60;;;;;;;;;;5069475;28;20044;-90
2024/01/11 10:25:22;;;;;;;48.90;21.60;;;;;;;;;;5070345;28;20028;-89
2024/01/11 10:27:50;;;;;;;59.45;21.48;;;;;;;;;;5072180;28;20043;-89
2024/01/11 10:30:16;;;;;;;54.65;22.13;;;;;;;;;;5085610;28;20032;-89
2024/01/11 10:32:43;;;;;;;44.45;18.42;;;;;;;;;;5070541;28;20099;-90
2024/01/11 10:35:09;;;;;;;48.47;19.20;;;;;;;;;;5072125;28;20107;-89
2024/01/11 10:37:36;;;;;;;47.55;18.65;;;;;;;;;;5063330;28;20043;-89
2024/01/11 10:40:10;;;;;;;48.22;17.73;;;;;;;;;;5082096;28;20115;-89
2024/01/11 10:42:40;;;;;;;52.97;20.20;;;;;;;;;;5082413;28;20068;-90
2024/01/11 10:45:19;;;;;;;41.58;17.63;;;;;;;;;;5076723;28;20063;-89
2024/01/11 10:48:00;;;;;;;52.45;20.90;;;;;;;;;;5073916;28;20074;-89
2024/01/11 10:50:26;;;;;;;20.63;10.70;;;;;;;;;;5075233;28;20024;-90
2024/01/11 10:53:03;;;;;;;36.75;15.93;;;;;;;;;;5075878;28;20777;-90
2024/01/11 10:55:31;;;;;;;33.65;15.32;;;;;;;;;;5082531;28;20389;-90
2024/01/11 10:57:59;;;;;;;40.70;17.30;;;;;;;;;;5079324;28;20036;-90
2024/01/11 11:00:26;;;;;;;34.35;13.88;;;;;;;;;;5080726;28;20059;-89
2024/01/11 11:02:54;;;;;;;22.45;11.40;;;;;;;;;;5074422;28;20035;-90
2024/01/11 11:05:21;;;;;;;38.58;15.20;;;;;;;;;;5080013;28;20027;-89
2024/01/11 11:07:49;;;;;;;32.63;14.70;;;;;;;;;;5080954;28;20016;-89
2024/01/11 11:10:18;;;;;;;36.72;15.35;;;;;;;;;;5066740;28;20036;-92
2024/01/11 11:12:46;;;;;;;35.85;14.18;;;;;;;;;;5070460;28;20048;-90
2024/01/11 11:15:12;;;;;;;29.30;11.15;;;;;;;;;;5073593;28;20465;-90
2024/01/11 11:17:42;;;;;;;16.88;8.82;;;;;;;;;;5071281;28;20028;-90
2024/01/11 11:20:09;;;;;;;35.40;14.45;;;;;;;;;;5071779;28;20020;-89
2024/01/11 11:22:35;;;;;;;41.35;16.17;;;;;;;;;;5073294;28;20444;-90
2024/01/11 11:25:08;;;;;;;36.22;15.60;;;;;;;;;;5067072;28;20017;-90
2024/01/11 11:27:33;;;;;;;43.13;16.75;;;;;;;;;;5070612;28;20060;-90
2024/01/11 11:29:59;;;;;;;44.85;18.52;;;;;;;;;;5068587;28;20075;-89
2024/01/11 11:32:38;;;;;;;53.22;20.40;;;;;;;;;;5073731;28;20034;-90
2024/01/11 11:35:04;;;;;;;54.22;22.63;;;;;;;;;;5076078;28;20067;-89
2024/01/11 11:37:31;;;;;;;46.33;20.45;;;;;;;;;;5081446;28;20416;-89
2024/01/11 11:40:00;;;;;;;42.17;18.55;;;;;;;;;;5082012;28;20563;-90
2024/01/11 11:42:26;;;;;;;40.50;18.30;;;;;;;;;;5086794;28;20051;-91
2024/01/11 11:44:57;;;;;;;32.33;14.13;;;;;;;;;;5084467;28;20601;-90
2024/01/11 11:47:23;;;;;;;31.40;11.07;;;;;;;;;;5081745;28;20028;-89
2024/01/11 11:50:04;;;;;;;6.88;5.85;;;;;;;;;;5078275;28;20074;-90
2024/01/11 11:52:31;;;;;;;;;;;;;;;;;;5069254;28;20534;-90
2024/01/11 11:54:58;;;;;;;5.55;2.53;;;;;;;;;;5081363;28;19917;-89
2024/01/11 11:57:24;;;;;;;6.60;2.80;;;;;;;;;;5068646;28;20115;-90
2024/01/11 11:59:49;;;;;;;16.30;7.65;;;;;;;;;;5074321;28;20123;-90
2024/01/11 12:02:17;;;;;;;34.53;12.40;;;;;;;;;;5083917;28;20066;-90
2024/01/11 12:04:47;;;;;;;29.88;12.40;;;;;;;;;;5065013;28;20074;-90
2024/01/11 12:07:12;;;;;;;9.20;4.78;;;;;;;;;;5077590;28;20020;-90
2024/01/11 12:09:38;;;;;;;7.15;5.65;;;;;;;;;;5074422;28;20473;-89
2024/01/11 12:12:04;;;;;;;33.28;13.20;;;;;;;;;;5073303;28;20051;-91
2024/01/11 12:14:29;;;;;;;34.58;13.55;;;;;;;;;;5078596;28;20020;-90
2024/01/11 12:16:57;;;;;;;26.00;11.68;;;;;;;;;;5076033;28;20052;-90
2024/01/11 12:19:23;;;;;;;9.25;4.38;;;;;;;;;;5074285;28;20060;-90
2024/01/11 12:21:49;;;;;;;16.38;7.75;;;;;;;;;;5073748;28;20023;-90
2024/01/11 12:24:16;;;;;;;17.58;7.20;;;;;;;;;;5071950;28;20081;-91
2024/01/11 12:26:42;;;;;;;14.10;6.03;;;;;;;;;;5072963;28;20109;-91
2024/01/11 12:29:09;;;;;;;17.77;8.68;;;;;;;;;;5066305;28;20020;-89
2024/01/11 12:31:35;;;;;;;16.67;7.75;;;;;;;;;;5077937;28;20414;-90
2024/01/11 12:34:04;;;;;;;9.18;5.07;;;;;;;;;;5067732;28;20024;-90
2024/01/11 12:36:30;;;;;;;8.52;4.07;;;;;;;;;;5072603;28;20025;-90
2024/01/11 12:38:55;;;;;;;12.68;5.90;;;;;;;;;;5083223;28;20442;-90
2024/01/11 12:41:24;;;;;;;14.68;6.53;;;;;;;;;;5082472;28;20020;-90
2024/01/11 12:43:49;;;;;;;14.30;5.75;;;;;;;;;;5074421;28;20031;-90
2024/01/11 12:46:15;;;;;;;10.35;4.47;;;;;;;;;;5079184;28;20036;-90
2024/01/11 12:48:41;;;;;;;11.73;5.20;;;;;;;;;;5075078;28;20020;-91
2024/01/11 12:51:07;;;;;;;10.02;5.28;;;;;;;;;;5068774;28;20111;-90
2024/01/11 12:53:32;;;;;;;10.57;4.88;;;;;;;;;;5071205;28;20392;-90
2024/01/11 12:56:13;;;;;;;6.45;4.32;;;;;;;;;;5073545;28;20177;-91
2024/01/11 12:58:39;;;;;;;8.27;3.50;;;;;;;;;;5079902;28;20420;-90
2024/01/11 13:01:08;;;;;;;11.27;5.55;;;;;;;;;;5076230;28;20492;-89
2024/01/11 13:03:38;;;;;;;7.22;4.60;;;;;;;;;;5070511;28;20111;-91
2024/01/11 13:06:06;;;;;;;13.13;4.70;;;;;;;;;;5063625;28;20020;-89
2024/01/11 13:08:32;;;;;;;10.23;4.78;;;;;;;;;;5071619;28;20032;-90
2024/01/11 13:10:58;;;;;;;10.07;5.68;;;;;;;;;;5073444;28;20073;-89
2024/01/11 13:13:23;;;;;;;11.55;4.88;;;;;;;;;;5070875;28;20030;-90
2024/01/11 13:15:48;;;;;;;17.10;6.97;;;;;;;;;;5069053;28;20024;-90
2024/01/11 13:18:14;;;;;;;13.93;7.32;;;;;;;;;;5074446;28;20028;-90
2024/01/11 13:20:40;;;;;;;6.25;3.58;;;;;;;;;;5071255;28;20131;-90
2024/01/11 13:23:31;;;;;;;2.03;1.92;;;;;;;;;;5073766;28;20628;-91
2024/01/11 13:25:57;;;;;;;6.50;3.47;;;;;;;;;;5068961;28;20043;-90
2024/01/11 13:28:22;;;;;;;7.70;3.70;;;;;;;;;;5069295;28;20040;-91
2024/01/11 13:30:51;;;;;;;10.98;4.90;;;;;;;;;;5072880;28;20020;-90
2024/01/11 13:33:17;;;;;;;9.05;4.35;;;;;;;;;;5082197;28;20395;-91
2024/01/11 13:35:43;;;;;;;16.67;6.78;;;;;;;;;;5078236;28;20039;-91
2024/01/11 13:38:09;;;;;;;12.93;5.32;;;;;;;;;;5082709;28;20026;-91
2024/01/11 13:40:35;;;;;;;10.80;5.80;;;;;;;;;;5078791;28;20017;-91
2024/01/11 13:43:03;;;;;;;8.50;4.03;;;;;;;;;;5077960;28;20019;-90
2024/01/11 13:45:32;;;;;;;10.43;4.95;;;;;;;;;;5076817;28;20116;-90
2024/01/11 13:47:59;;;;;;;11.55;5.35;;;;;;;;;;5079679;28;20103;-91
2024/01/11 13:50:25;;;;;;;10.38;5.43;;;;;;;;;;5073283;28;20032;-91
2024/01/11 13:52:50;;;;;;;11.75;6.35;;;;;;;;;;5084782;28;20036;-91
2024/01/11 13:55:17;;;;;;;13.18;6.68;;;;;;;;;;5078797;28;20020;-91
2024/01/11 13:57:43;;;;;;;4.95;3.03;;;;;;;;;;5066158;28;20040;-91
2024/01/11 14:00:11;;;;;;;23.20;12.00;;;;;;;;;;5068853;28;20021;-91
2024/01/11 14:02:37;;;;;;;14.57;5.80;;;;;;;;;;5073881;28;20082;-92
2024/01/11 14:05:04;;;;;;;23.45;10.80;;;;;;;;;;5072265;28;20024;-92
2024/01/11 14:07:30;;;;;;;26.52;12.63;;;;;;;;;;5071463;28;20028;-90
2024/01/11 14:09:55;;;;;;;9.60;3.70;;;;;;;;;;5077943;28;20024;-91
2024/01/11 14:12:23;;;;;;;10.70;5.53;;;;;;;;;;5063379;28;20029;-92
2024/01/11 14:14:49;;;;;;;9.57;5.15;;;;;;;;;;5074371;28;20063;-92
2024/01/11 14:17:14;;;;;;;16.35;6.82;;;;;;;;;;5070886;28;20051;-91
2024/01/11 14:19:40;;;;;;;53.05;19.90;;;;;;;;;;5070541;28;20036;-90